createdAt,value
2019-02-04T00:03:42.066Z,100914.52
2019-02-04T00:06:32.662Z,100909.63
2019-02-04T00:09:25.913Z,100908.59
2019-02-04T00:12:16.637Z,100897.18
2019-02-04T00:15:06.937Z,100900.28
2019-02-04T00:18:18.807Z,100904.63
2019-02-04T00:21:07.824Z,100902.48
2019-02-04T00:23:58.651Z,100906.64
2019-02-04T00:26:29.512Z,100915.37
2019-02-04T00:29:00.315Z,100921.69
2019-02-04T00:32:08.356Z,100911.61
2019-02-04T00:34:38.332Z,100918.43
2019-02-04T00:37:22.467Z,100902.17
2019-02-04T00:39:56.148Z,100919.00
2019-02-04T00:42:13.555Z,100920.44
2019-02-04T00:44:43.401Z,100921.13
2019-02-04T00:47:13.298Z,100918.53
2019-02-04T00:50:03.878Z,100914.87
2019-02-04T00:52:48.305Z,100922.80
2019-02-04T00:55:22.776Z,100922.58
2019-02-04T00:57:52.608Z,100932.17
2019-02-04T01:00:40.648Z,100921.55
2019-02-04T01:03:36.102Z,100919.70
2019-02-04T01:06:25.141Z,100929.41
2019-02-04T01:11:56.926Z,100930.06
2019-02-04T01:17:36.731Z,100936.80
2019-02-04T01:20:07.303Z,100938.95
2019-02-04T01:22:37.304Z,100946.78
2019-02-04T01:25:26.917Z,100949.02
2019-02-04T01:28:15.663Z,100944.61
2019-02-04T01:31:05.097Z,100947.47
2019-02-04T01:34:14.476Z,100948.98
2019-02-04T01:37:03.486Z,100950.09
2019-02-04T01:39:33.463Z,100958.67
2019-02-04T01:42:22.467Z,100955.78
2019-02-04T01:45:12.175Z,100959.00
2019-02-04T01:48:13.122Z,100953.31
2019-02-04T01:50:32.958Z,100935.06
2019-02-04T01:53:42.202Z,100935.06
2019-02-04T01:59:26.000Z,100965.80
2019-02-04T02:01:57.683Z,100965.80
2019-02-04T02:04:29.597Z,100967.20
2019-02-04T02:07:22.300Z,100968.81
2019-02-04T02:09:54.259Z,100981.89
2019-02-04T02:12:24.244Z,100981.03
2019-02-04T02:15:15.330Z,100983.86
2019-02-04T02:17:47.039Z,100990.39
2019-02-04T02:23:21.445Z,100990.83
2019-02-04T02:25:53.097Z,100988.66
2019-02-04T02:28:23.008Z,100989.70
2019-02-04T02:30:55.135Z,100988.68
2019-02-04T02:36:32.973Z,100981.16
2019-02-04T02:42:02.332Z,100986.70
2019-02-04T02:44:52.200Z,100981.72
2019-02-04T02:50:24.742Z,100988.22
2019-02-04T02:52:55.679Z,100978.68
2019-02-04T02:55:27.443Z,100990.09
2019-02-04T02:57:59.597Z,100996.97
2019-02-04T03:00:30.661Z,101003.74
2019-02-04T03:03:19.684Z,101009.77
2019-02-04T03:06:09.582Z,101013.60
2019-02-04T03:08:58.571Z,101030.45
2019-02-04T03:11:29.350Z,101022.55
2019-02-04T03:14:19.139Z,100994.69
2019-02-04T03:17:22.674Z,101027.63
2019-02-04T03:20:11.250Z,101027.80
2019-02-04T03:23:00.913Z,101024.33
2019-02-04T03:25:49.825Z,101027.23
2019-02-04T03:28:38.791Z,101034.45
2019-02-04T03:31:31.217Z,101039.39
2019-02-04T03:34:20.166Z,101034.01
2019-02-04T03:37:11.644Z,101032.81
2019-02-04T03:39:41.485Z,101036.66
2019-02-04T03:44:54.581Z,101044.94
2019-02-04T03:50:28.059Z,101043.06
2019-02-04T03:52:58.866Z,101045.73
2019-02-04T03:55:49.412Z,101031.58
2019-02-04T03:58:22.962Z,101043.17
2019-02-04T04:01:13.647Z,101033.95
2019-02-04T04:07:06.359Z,101028.94
2019-02-04T04:09:36.325Z,101029.25
2019-02-04T04:12:06.326Z,101035.08
2019-02-04T04:14:38.026Z,101040.45
2019-02-04T04:17:07.890Z,101038.08
2019-02-04T04:19:38.173Z,101023.67
2019-02-04T04:22:09.989Z,101030.82
2019-02-04T04:24:42.746Z,101035.72
2019-02-04T04:27:33.361Z,101042.72
2019-02-04T04:30:05.855Z,101043.66
2019-02-04T04:32:55.052Z,101053.27
2019-02-04T04:35:25.862Z,101047.14
2019-02-04T04:37:55.821Z,101057.00
2019-02-04T04:40:25.751Z,101061.06
2019-02-04T04:42:56.645Z,101063.33
2019-02-04T04:45:46.809Z,101065.20
2019-02-04T04:48:26.287Z,101067.08
2019-02-04T04:51:27.020Z,101064.56
2019-02-04T04:53:59.201Z,101072.08
2019-02-04T04:56:29.441Z,101047.40
2019-02-04T04:59:01.178Z,101065.59
2019-02-04T05:01:52.407Z,101067.27
2019-02-04T05:04:41.446Z,101065.20
2019-02-04T05:08:00.004Z,101065.66
2019-02-04T05:10:32.109Z,101075.01
2019-02-04T05:16:27.343Z,101074.91
2019-02-04T05:19:16.341Z,101074.91
2019-02-04T05:21:46.330Z,101079.24
2019-02-04T05:24:16.302Z,101084.39
2019-02-04T05:26:58.242Z,101083.27
2019-02-04T05:29:28.187Z,101083.00
2019-02-04T05:31:58.071Z,101086.36
2019-02-04T05:37:35.810Z,101090.39
2019-02-04T05:43:14.340Z,101077.63
2019-02-04T05:46:03.062Z,101081.41
2019-02-04T05:48:53.282Z,101085.15
2019-02-04T05:54:30.985Z,101073.34
2019-02-04T05:57:19.884Z,101073.91
2019-02-04T06:03:33.200Z,101065.77
2019-02-04T06:06:22.202Z,101078.72
2019-02-04T06:08:53.108Z,101069.11
2019-02-04T06:11:24.721Z,101075.98
2019-02-04T06:14:13.728Z,101087.11
2019-02-04T06:25:32.309Z,101084.31
2019-02-04T06:28:02.242Z,101100.88
2019-02-04T06:33:33.533Z,101090.63
2019-02-04T06:36:22.560Z,101105.92
2019-02-04T06:39:11.608Z,101096.41
2019-02-04T06:41:51.888Z,101104.11
2019-02-04T06:44:23.018Z,101108.23
2019-02-04T06:46:53.845Z,101110.97
2019-02-04T06:49:42.495Z,101112.41
2019-02-04T06:52:12.747Z,101115.32
2019-02-04T06:55:04.176Z,101112.30
2019-02-04T06:57:34.522Z,101121.09
2019-02-04T07:00:04.572Z,101123.05
2019-02-04T07:02:34.486Z,101126.82
2019-02-04T07:08:05.627Z,101126.20
2019-02-04T07:10:36.961Z,101132.61
2019-02-04T07:13:06.835Z,101135.44
2019-02-04T07:15:36.784Z,101144.02
2019-02-04T07:18:28.180Z,101145.44
2019-02-04T07:21:16.870Z,101154.94
2019-02-04T07:24:05.830Z,101157.91
2019-02-04T07:26:56.428Z,101150.01
2019-02-04T07:29:46.566Z,101145.20
2019-02-04T07:38:01.929Z,101156.93
2019-02-04T07:46:52.836Z,101179.78
2019-02-04T07:52:30.586Z,101170.94
2019-02-04T07:58:35.617Z,101158.84
2019-02-04T08:00:55.576Z,101162.20
2019-02-04T08:03:44.530Z,101168.62
2019-02-04T08:06:14.454Z,101161.44
2019-02-04T08:11:43.740Z,101153.59
2019-02-04T08:14:35.072Z,101156.92
2019-02-04T08:17:13.264Z,101155.48
2019-02-04T08:20:24.249Z,101152.98
2019-02-04T08:26:14.656Z,101156.43
2019-02-04T08:28:47.460Z,101157.58
2019-02-04T08:31:58.292Z,101162.59
2019-02-04T08:41:12.315Z,101161.83
2019-02-04T08:47:33.362Z,101149.19
2019-02-04T08:50:24.130Z,101156.30
2019-02-04T08:52:54.086Z,101150.27
2019-02-04T08:56:01.931Z,101157.39
2019-02-04T08:58:50.965Z,101153.06
2019-02-04T09:01:41.585Z,101152.21
2019-02-04T09:04:11.509Z,101146.18
2019-02-04T09:06:43.724Z,101145.56
2019-02-04T09:13:11.835Z,101140.12
2019-02-04T09:18:44.925Z,101147.28
2019-02-04T09:21:14.347Z,101151.30
2019-02-04T09:23:44.359Z,101157.34
2019-02-04T09:26:14.370Z,101161.22
2019-02-04T09:29:24.905Z,101153.22
2019-02-04T09:34:48.754Z,101167.88
2019-02-04T09:37:38.664Z,101176.38
2019-02-04T09:40:51.464Z,101176.89
2019-02-04T09:46:25.154Z,101179.16
2019-02-04T09:48:55.870Z,101175.62
2019-02-04T09:51:26.873Z,101171.14
2019-02-04T09:54:00.305Z,101173.89
2019-02-04T09:56:50.267Z,101163.58
2019-02-04T10:07:51.636Z,101166.68
2019-02-04T10:10:26.135Z,101156.21
2019-02-04T10:12:56.243Z,101153.98
2019-02-04T10:15:28.271Z,101160.61
2019-02-04T10:17:59.291Z,101154.69
2019-02-04T10:20:48.282Z,101146.70
2019-02-04T10:23:58.129Z,101154.25
2019-02-04T10:26:59.252Z,101143.03
2019-02-04T10:32:22.726Z,101134.79
2019-02-04T10:34:52.913Z,101132.61
2019-02-04T10:40:49.085Z,101125.27
2019-02-04T10:43:38.222Z,101114.87
2019-02-04T10:46:10.724Z,101113.49
2019-02-04T10:48:41.384Z,101109.28
2019-02-04T10:52:04.360Z,101114.77
2019-02-04T10:57:44.182Z,101099.08
2019-02-04T11:00:27.182Z,101105.87
2019-02-04T11:06:26.332Z,101098.25
2019-02-04T11:09:16.279Z,101093.84
2019-02-04T11:12:06.498Z,101074.26
2019-02-04T11:15:08.011Z,101083.94
2019-02-04T11:17:29.094Z,101083.09
2019-02-04T11:20:26.358Z,101079.97
2019-02-04T11:25:51.409Z,101071.72
2019-02-04T11:28:43.059Z,101075.69
2019-02-04T11:40:46.169Z,101065.08
2019-02-04T11:49:28.545Z,101055.26
2019-02-04T11:51:59.597Z,101048.59
2019-02-04T11:54:49.704Z,101048.59
2019-02-04T11:57:22.494Z,101045.97
2019-02-04T11:59:53.819Z,101045.31
2019-02-04T12:02:34.342Z,101045.45
2019-02-04T12:05:02.743Z,101046.25
2019-02-04T12:08:10.551Z,101047.13
2019-02-04T12:10:39.539Z,101038.44
2019-02-04T12:13:11.134Z,101042.23
2019-02-04T12:19:06.388Z,101042.56
2019-02-04T12:25:04.492Z,101025.57
2019-02-04T12:28:07.273Z,101018.19
2019-02-04T12:30:40.507Z,101016.03
2019-02-04T12:33:14.189Z,101002.53
2019-02-04T12:36:05.683Z,100999.45
2019-02-04T12:39:23.314Z,100994.88
2019-02-04T12:41:09.551Z,100994.56
2019-02-04T12:43:59.572Z,100986.45
2019-02-04T12:47:01.774Z,100986.45
2019-02-04T12:49:41.540Z,100995.38
2019-02-04T12:52:31.907Z,100993.72
2019-02-04T12:55:41.519Z,100993.14
2019-02-04T12:58:11.820Z,100996.02
2019-02-04T13:03:27.467Z,100981.49
2019-02-04T13:06:17.884Z,100981.52
2019-02-04T13:08:49.157Z,100978.73
2019-02-04T13:11:57.326Z,100983.72
2019-02-04T13:14:27.730Z,100982.87
2019-02-04T13:17:32.513Z,100983.72
2019-02-04T13:22:52.945Z,100972.77
2019-02-04T13:25:43.211Z,100964.52
2019-02-04T13:28:44.509Z,100964.91
2019-02-04T13:31:05.714Z,100948.43
2019-02-04T13:33:54.960Z,100949.39
2019-02-04T13:36:44.013Z,100944.45
2019-02-04T13:42:26.598Z,100947.31
2019-02-04T13:45:28.163Z,100934.14
2019-02-04T13:48:20.113Z,100937.75
2019-02-04T13:51:30.362Z,100932.96
2019-02-04T13:54:20.762Z,100930.23
2019-02-04T13:56:56.170Z,100928.03
2019-02-04T14:03:20.216Z,100920.17
2019-02-04T14:06:22.205Z,100912.40
2019-02-04T14:09:28.632Z,100908.95
2019-02-04T14:12:26.633Z,100907.55
2019-02-04T14:15:06.847Z,100907.98
2019-02-04T14:17:26.518Z,100912.50
2019-02-04T14:22:58.090Z,100915.67
2019-02-04T14:25:30.243Z,100917.20
2019-02-04T14:28:39.065Z,100920.36
2019-02-04T14:31:23.621Z,100907.19
2019-02-04T14:34:02.198Z,100913.91
2019-02-04T14:36:51.169Z,100911.25
2019-02-04T14:39:40.693Z,100910.77
2019-02-04T14:42:14.935Z,100903.75
2019-02-04T14:45:23.062Z,100898.05
2019-02-04T14:48:35.380Z,100895.27
2019-02-04T14:51:44.235Z,100883.47
2019-02-04T14:55:00.580Z,100891.05
2019-02-04T15:01:28.954Z,100890.21
2019-02-04T15:04:40.792Z,100890.56
2019-02-04T15:07:52.024Z,100888.38
2019-02-04T15:11:00.229Z,100887.26
2019-02-04T15:14:09.400Z,100882.77
2019-02-04T15:17:17.469Z,100883.90
2019-02-04T15:23:45.061Z,100878.22
2019-02-04T15:26:53.226Z,100876.30
2019-02-04T15:30:02.961Z,100866.53
2019-02-04T15:33:11.240Z,100865.39
2019-02-04T15:36:19.783Z,100861.73
2019-02-04T15:39:39.869Z,100857.50
2019-02-04T15:42:34.976Z,100862.34
2019-02-04T15:45:43.155Z,100862.75
2019-02-04T15:49:00.610Z,100866.38
2019-02-04T15:51:52.398Z,100865.95
2019-02-04T16:03:16.492Z,100883.94
2019-02-04T16:08:56.264Z,100886.05
2019-02-04T16:12:13.119Z,100886.86
2019-02-04T16:14:43.177Z,100882.76
2019-02-04T16:21:02.064Z,100885.88
2019-02-04T16:23:51.241Z,100884.92
2019-02-04T16:26:40.535Z,100880.41
2019-02-04T16:32:27.117Z,100887.47
2019-02-04T16:35:09.089Z,100888.86
2019-02-04T16:37:39.152Z,100892.38
2019-02-04T16:40:47.004Z,100892.64
2019-02-04T16:43:36.210Z,100900.19
2019-02-04T16:46:25.212Z,100888.48
2019-02-04T16:48:55.175Z,100890.55
2019-02-04T16:51:28.404Z,100885.89
2019-02-04T16:56:44.084Z,100884.73
2019-02-04T16:59:40.737Z,100887.27
2019-02-04T17:02:52.017Z,100889.64
2019-02-04T17:05:41.636Z,100893.43
2019-02-04T17:08:32.735Z,100895.79
2019-02-04T17:11:25.652Z,100888.08
2019-02-04T17:14:12.425Z,100888.93
2019-02-04T17:16:43.298Z,100892.55
2019-02-04T17:19:13.410Z,100891.19
2019-02-04T17:22:05.031Z,100894.13
2019-02-04T17:24:56.442Z,100889.55
2019-02-04T17:27:27.408Z,100889.04
2019-02-04T17:33:38.876Z,100892.30
2019-02-04T17:36:47.211Z,100890.36
2019-02-04T17:39:17.209Z,100888.30
2019-02-04T17:44:46.942Z,100895.13
2019-02-04T17:47:39.250Z,100900.95
2019-02-04T17:56:34.431Z,100894.95
2019-02-04T17:59:37.898Z,100901.52
2019-02-04T18:02:11.937Z,100900.67
2019-02-04T18:05:07.485Z,100906.97
2019-02-04T18:14:10.022Z,100910.45
2019-02-04T18:19:30.004Z,100918.95
2019-02-04T18:25:10.565Z,100917.88
2019-02-04T18:28:07.753Z,100919.08
2019-02-04T18:31:18.803Z,100921.05
2019-02-04T18:37:48.806Z,100917.41
2019-02-04T18:40:40.399Z,100912.38
2019-02-04T18:49:57.952Z,100892.45
2019-02-04T18:52:47.240Z,100886.15
2019-02-04T18:55:38.448Z,100894.37
2019-02-04T18:58:47.783Z,100895.45
2019-02-04T19:01:18.681Z,100885.94
2019-02-04T19:04:15.641Z,100890.30
2019-02-04T19:06:47.943Z,100879.28
2019-02-04T19:09:36.699Z,100877.61
2019-02-04T19:15:28.042Z,100884.01
2019-02-04T19:24:54.767Z,100882.20
2019-02-04T19:27:24.991Z,100879.95
2019-02-04T19:29:57.697Z,100880.95
2019-02-04T19:32:52.459Z,100880.70
2019-02-04T19:38:53.280Z,100871.42
2019-02-04T19:45:22.273Z,100871.20
2019-02-04T19:51:04.052Z,100868.07
2019-02-04T19:59:58.922Z,100871.33
2019-02-04T20:02:50.201Z,100878.81
2019-02-04T20:08:21.646Z,100885.09
2019-02-04T20:14:15.124Z,100895.20
2019-02-04T20:17:04.220Z,100896.20
2019-02-04T20:22:45.633Z,100889.74
2019-02-04T20:25:18.227Z,100889.52
2019-02-04T20:27:48.279Z,100891.37
2019-02-04T20:30:56.428Z,100893.04
2019-02-04T20:34:05.826Z,100886.27
2019-02-04T20:36:57.130Z,100888.45
2019-02-04T20:39:58.450Z,100893.41
2019-02-04T20:42:47.483Z,100886.17
2019-02-04T20:48:38.736Z,100878.06
2019-02-04T20:51:49.123Z,100878.67
2019-02-04T20:54:44.878Z,100883.77
2019-02-04T21:00:34.621Z,100877.13
2019-02-04T21:09:18.391Z,100874.58
2019-02-04T21:12:09.525Z,100878.73
2019-02-04T21:15:02.349Z,100894.03
2019-02-04T21:17:33.022Z,100895.34
2019-02-04T21:23:18.292Z,100892.50
2019-02-04T21:25:48.295Z,100894.20
2019-02-04T21:31:32.943Z,100886.02
2019-02-04T21:33:52.452Z,100899.16
2019-02-04T21:36:41.202Z,100896.28
2019-02-04T21:39:11.330Z,100893.48
2019-02-04T21:42:00.613Z,100894.73
2019-02-04T21:47:58.737Z,100894.97
2019-02-04T21:53:18.233Z,100886.52
2019-02-04T21:56:01.557Z,100892.41
2019-02-04T21:58:40.589Z,100892.76
2019-02-04T22:01:12.317Z,100899.35
2019-02-04T22:04:01.100Z,100898.43
2019-02-04T22:06:31.209Z,100898.70
2019-02-04T22:09:42.292Z,100900.98
2019-02-04T22:12:12.219Z,100903.13
2019-02-04T22:14:42.189Z,100897.63
2019-02-04T22:17:12.230Z,100893.21
2019-02-04T22:22:43.575Z,100896.80
2019-02-04T22:25:32.563Z,100901.45
2019-02-04T22:31:24.520Z,100893.51
2019-02-04T22:33:54.713Z,100891.20
2019-02-04T22:36:45.447Z,100889.48
2019-02-04T22:39:17.139Z,100889.28
2019-02-04T22:41:47.252Z,100891.67
2019-02-04T22:44:36.325Z,100894.58
2019-02-04T22:47:06.248Z,100899.59
2019-02-04T22:49:56.943Z,100905.48
2019-02-04T22:52:46.024Z,100906.97
2019-02-04T22:55:35.264Z,100909.19
2019-02-04T22:58:37.982Z,100901.72
2019-02-04T23:01:33.745Z,100894.23
2019-02-04T23:04:03.841Z,100903.55
2019-02-04T23:06:33.975Z,100909.70
2019-02-04T23:09:40.392Z,100905.22
2019-02-04T23:12:19.492Z,100909.30
2019-02-04T23:14:49.363Z,100900.28
2019-02-04T23:17:57.157Z,100908.69
2019-02-04T23:23:48.470Z,100916.87
2019-02-04T23:29:56.396Z,100915.24
2019-02-04T23:32:16.017Z,100922.21
2019-02-04T23:34:45.948Z,100903.17
2019-02-04T23:37:21.748Z,100909.22
2019-02-04T23:40:25.074Z,100913.05
2019-02-04T23:43:01.528Z,100924.99
2019-02-04T23:46:10.828Z,100921.12
2019-02-04T23:48:59.798Z,100912.11
2019-02-04T23:51:31.497Z,100907.28
2019-02-04T23:54:20.556Z,100902.33
2019-02-04T23:56:52.875Z,100904.39
2019-02-04T23:59:44.199Z,100900.89
